Time;durP1;ratioP1;P1;durP2;ratioP2;P2;SDS_P1;SDS_P2;PMS_P1;PMS_P2;Temp;Humidity;BMP_temperature;BMP_pressure;BME280_temperature;BME280_humidity;BME280_pressure;Samples;Min_cycle;Max_cycle;Signal;HPM_P1;HPM_P2
2022/07/12 00:00:00;;;;;;;1.52;0.90;;;;;;;;;;4992542;28;20037;-41
2022/07/12 00:02:26;;;;;;;1.20;0.82;;;;;;;;;;4993298;28;20038;-40
2022/07/12 00:04:51;;;;;;;1.05;0.95;;;;;;;;;;4992868;28;20027;-41
2022/07/12 00:07:17;;;;;;;0.65;0.55;;;;;;;;;;4991729;28;20089;-41
2022/07/12 00:09:42;;;;;;;1.60;1.10;;;;;;;;;;4992781;28;20019;-40
2022/07/12 00:12:08;;;;;;;1.95;1.00;;;;;;;;;;4993056;28;20073;-41
2022/07/12 00:14:34;;;;;;;0.82;0.77;;;;;;;;;;4992626;28;20405;-41
2022/07/12 00:16:59;;;;;;;2.65;0.75;;;;;;;;;;4992767;28;20128;-40
2022/07/12 00:19:25;;;;;;;1.42;0.73;;;;;;;;;;4992811;28;20034;-41
2022/07/12 00:21:50;;;;;;;4.60;0.77;;;;;;;;;;4992786;28;20092;-40
2022/07/12 00:24:15;;;;;;;1.75;0.47;;;;;;;;;;4992922;28;20381;-41
2022/07/12 00:26:41;;;;;;;1.52;0.70;;;;;;;;;;4992523;28;20109;-40
2022/07/12 00:29:06;;;;;;;2.00;0.77;;;;;;;;;;4992622;28;20385;-41
2022/07/12 00:31:32;;;;;;;2.53;0.77;;;;;;;;;;4992500;28;20618;-41
2022/07/12 00:33:57;;;;;;;1.70;0.80;;;;;;;;;;4974893;28;20022;-41
2022/07/12 00:36:22;;;;;;;1.80;1.15;;;;;;;;;;4992452;28;20041;-41
2022/07/12 00:38:48;;;;;;;1.55;0.90;;;;;;;;;;4992401;28;20027;-40
2022/07/12 00:41:13;;;;;;;0.63;0.63;;;;;;;;;;4992194;28;20042;-41
2022/07/12 00:43:39;;;;;;;1.58;1.23;;;;;;;;;;4992297;28;20030;-41
2022/07/12 00:46:04;;;;;;;1.60;0.60;;;;;;;;;;4992307;28;20034;-41
2022/07/12 00:48:32;;;;;;;0.98;0.88;;;;;;;;;;4992221;28;20134;-40
2022/07/12 00:50:57;;;;;;;3.95;0.68;;;;;;;;;;4992153;28;20550;-40
2022/07/12 00:53:24;;;;;;;1.70;0.90;;;;;;;;;;4992497;28;20018;-40
2022/07/12 00:55:56;;;;;;;2.88;0.70;;;;;;;;;;4992294;28;20184;-41
2022/07/12 00:58:22;;;;;;;1.87;1.00;;;;;;;;;;4992512;28;20034;-41
2022/07/12 01:00:48;;;;;;;5.35;0.80;;;;;;;;;;4991944;28;20038;-40
2022/07/12 01:03:14;;;;;;;3.53;0.55;;;;;;;;;;4992335;28;20389;-40
2022/07/12 01:05:40;;;;;;;1.50;0.77;;;;;;;;;;4992274;28;20477;-41
2022/07/12 01:08:06;;;;;;;2.38;0.82;;;;;;;;;;4992021;28;20061;-41
2022/07/12 01:10:31;;;;;;;0.90;0.70;;;;;;;;;;4991877;28;20025;-40
2022/07/12 01:12:58;;;;;;;3.33;0.95;;;;;;;;;;4991942;28;20034;-41
2022/07/12 01:15:24;;;;;;;1.35;0.77;;;;;;;;;;4991904;28;20046;-41
2022/07/12 01:17:49;;;;;;;0.60;0.60;;;;;;;;;;4991820;28;20045;-41
2022/07/12 01:20:16;;;;;;;1.05;0.75;;;;;;;;;;4991824;28;20019;-40
2022/07/12 01:22:50;;;;;;;1.00;1.00;;;;;;;;;;4992098;28;20026;-41
2022/07/12 01:25:15;;;;;;;1.40;0.80;;;;;;;;;;4991946;28;20076;-41
2022/07/12 01:27:40;;;;;;;3.40;0.52;;;;;;;;;;4992082;28;20026;-41
2022/07/12 01:30:06;;;;;;;2.47;1.20;;;;;;;;;;4991814;28;20034;-40
2022/07/12 01:32:32;;;;;;;2.28;0.73;;;;;;;;;;4974445;28;20109;-41
2022/07/12 01:34:58;;;;;;;0.85;0.57;;;;;;;;;;4991775;28;20030;-41
2022/07/12 01:37:24;;;;;;;1.08;0.65;;;;;;;;;;4992073;28;20030;-41
2022/07/12 01:39:54;;;;;;;1.38;0.60;;;;;;;;;;4991534;28;20376;-41
2022/07/12 01:42:20;;;;;;;1.25;0.68;;;;;;;;;;4992123;28;20096;-40
2022/07/12 01:44:45;;;;;;;1.98;0.80;;;;;;;;;;4991675;28;20031;-40
2022/07/12 01:47:11;;;;;;;6.57;0.68;;;;;;;;;;4991705;28;20018;-40
2022/07/12 01:49:37;;;;;;;2.88;0.90;;;;;;;;;;4991819;28;20032;-41
2022/07/12 01:52:02;;;;;;;2.50;0.88;;;;;;;;;;4991885;28;20023;-41
2022/07/12 01:54:28;;;;;;;1.80;0.65;;;;;;;;;;4991908;28;20034;-41
2022/07/12 01:56:54;;;;;;;4.53;0.60;;;;;;;;;;4991570;28;20014;-41
2022/07/12 01:59:19;;;;;;;0.80;0.60;;;;;;;;;;4991792;28;20078;-41
2022/07/12 02:01:45;;;;;;;1.40;0.70;;;;;;;;;;4991491;28;20062;-41
2022/07/12 02:04:11;;;;;;;0.93;0.70;;;;;;;;;;4991856;28;20422;-41
2022/07/12 02:06:37;;;;;;;1.77;0.52;;;;;;;;;;4991454;28;20027;-41
2022/07/12 02:09:02;;;;;;;3.20;1.00;;;;;;;;;;4991739;28;20027;-41
2022/07/12 02:11:27;;;;;;;4.63;1.35;;;;;;;;;;4991772;28;20041;-41
2022/07/12 02:13:53;;;;;;;0.90;0.45;;;;;;;;;;4991576;28;20106;-41
2022/07/12 02:16:18;;;;;;;1.40;1.27;;;;;;;;;;4991302;28;20054;-40
2022/07/12 02:18:43;;;;;;;1.83;0.77;;;;;;;;;;4991334;28;20177;-41
2022/07/12 02:21:09;;;;;;;1.65;1.10;;;;;;;;;;4973904;28;20041;-41
2022/07/12 02:23:34;;;;;;;1.75;0.75;;;;;;;;;;4993798;28;20023;-40
2022/07/12 02:26:00;;;;;;;2.55;0.98;;;;;;;;;;4994901;28;20428;-41
2022/07/12 02:28:25;;;;;;;1.48;0.80;;;;;;;;;;4994817;28;20027;-40
2022/07/12 02:30:50;;;;;;;5.85;1.25;;;;;;;;;;4994680;28;20034;-40
2022/07/12 02:33:16;;;;;;;1.17;0.80;;;;;;;;;;4994781;28;20050;-41
2022/07/12 02:35:42;;;;;;;1.88;0.70;;;;;;;;;;4994798;28;20460;-41
2022/07/12 02:38:07;;;;;;;3.92;0.80;;;;;;;;;;4994978;28;20034;-41
2022/07/12 02:40:54;;;;;;;0.65;0.65;;;;;;;;;;4994522;28;20117;-40
2022/07/12 02:43:19;;;;;;;1.20;0.60;;;;;;;;;;4993376;28;20054;-41
2022/07/12 02:45:45;;;;;;;0.55;0.55;;;;;;;;;;4976991;28;20420;-41
2022/07/12 02:48:12;;;;;;;1.55;0.90;;;;;;;;;;4994742;28;20026;-41
2022/07/12 02:50:37;;;;;;;1.67;1.00;;;;;;;;;;4994267;28;20494;-40
2022/07/12 02:53:04;;;;;;;2.40;0.75;;;;;;;;;;4994450;28;20022;-41
2022/07/12 02:55:29;;;;;;;0.55;0.52;;;;;;;;;;4994630;28;20034;-40
2022/07/12 02:57:54;;;;;;;5.00;0.60;;;;;;;;;;4994177;28;20496;-40
2022/07/12 03:00:20;;;;;;;1.48;0.70;;;;;;;;;;4994183;28;20041;-40
2022/07/12 03:02:45;;;;;;;1.23;0.70;;;;;;;;;;4994371;28;20052;-41
2022/07/12 03:05:10;;;;;;;1.75;0.70;;;;;;;;;;4994221;28;20449;-40
2022/07/12 03:07:36;;;;;;;2.60;1.33;;;;;;;;;;4994018;28;20042;-41
2022/07/12 03:10:01;;;;;;;2.33;0.80;;;;;;;;;;4994255;28;20018;-41
2022/07/12 03:12:27;;;;;;;1.42;0.90;;;;;;;;;;4994474;28;20062;-41
2022/07/12 03:14:53;;;;;;;0.98;0.80;;;;;;;;;;4993969;28;20042;-41
2022/07/12 03:17:19;;;;;;;1.60;0.80;;;;;;;;;;4993955;28;20081;-41
2022/07/12 03:19:44;;;;;;;1.52;0.82;;;;;;;;;;4993737;28;20061;-41
2022/07/12 03:22:09;;;;;;;1.30;0.80;;;;;;;;;;4993825;28;20455;-40
2022/07/12 03:24:35;;;;;;;1.40;0.95;;;;;;;;;;4993948;28;20022;-40
2022/07/12 03:27:00;;;;;;;1.33;0.80;;;;;;;;;;4993963;28;20026;-41
2022/07/12 03:29:26;;;;;;;0.98;0.60;;;;;;;;;;4993888;28;20539;-41
2022/07/12 03:31:51;;;;;;;1.25;0.77;;;;;;;;;;4993565;28;20392;-40
2022/07/12 03:34:16;;;;;;;1.40;0.93;;;;;;;;;;4992561;28;20023;-41
2022/07/12 03:36:42;;;;;;;2.05;0.70;;;;;;;;;;4993737;28;20112;-41
2022/07/12 03:39:07;;;;;;;0.93;0.70;;;;;;;;;;4993717;28;20101;-40
2022/07/12 03:41:33;;;;;;;1.08;0.88;;;;;;;;;;4993647;28;20125;-40
2022/07/12 03:43:58;;;;;;;2.40;1.00;;;;;;;;;;4993312;28;20572;-40
2022/07/12 03:46:24;;;;;;;0.75;0.70;;;;;;;;;;4993635;28;20114;-40
2022/07/12 03:48:49;;;;;;;3.17;1.60;;;;;;;;;;4993160;28;20050;-40
2022/07/12 03:51:14;;;;;;;1.17;0.60;;;;;;;;;;4993342;28;20113;-40
2022/07/12 03:53:40;;;;;;;1.88;0.98;;;;;;;;;;4993293;28;20014;-41
2022/07/12 03:56:05;;;;;;;1.42;0.70;;;;;;;;;;4993223;28;20030;-40
2022/07/12 03:58:31;;;;;;;1.42;0.98;;;;;;;;;;4993470;28;20023;-41
2022/07/12 04:00:57;;;;;;;1.08;0.90;;;;;;;;;;4993064;28;20045;-40
2022/07/12 04:03:22;;;;;;;1.15;0.65;;;;;;;;;;4993033;28;20019;-41
2022/07/12 04:05:48;;;;;;;1.70;0.80;;;;;;;;;;4975566;28;20030;-41
2022/07/12 04:08:13;;;;;;;2.15;0.70;;;;;;;;;;4993184;28;20465;-41
2022/07/12 04:10:39;;;;;;;3.40;1.65;;;;;;;;;;4991491;28;20034;-41
2022/07/12 04:13:04;;;;;;;0.90;0.60;;;;;;;;;;4992856;28;20042;-42
2022/07/12 04:15:29;;;;;;;3.50;1.13;;;;;;;;;;4992658;28;20050;-41
2022/07/12 04:17:55;;;;;;;1.40;0.80;;;;;;;;;;4992743;28;20034;-40
2022/07/12 04:20:20;;;;;;;6.97;1.02;;;;;;;;;;4992588;28;20046;-41
2022/07/12 04:22:45;;;;;;;2.72;1.20;;;;;;;;;;4992838;28;20084;-40
2022/07/12 04:25:11;;;;;;;1.25;0.90;;;;;;;;;;4992915;28;20038;-40
2022/07/12 04:27:37;;;;;;;1.88;0.93;;;;;;;;;;4992522;28;20049;-41
2022/07/12 04:30:03;;;;;;;3.33;1.67;;;;;;;;;;4992539;28;20026;-40
2022/07/12 04:32:28;;;;;;;1.10;0.90;;;;;;;;;;4992456;28;20429;-41
2022/07/12 04:34:54;;;;;;;2.10;0.93;;;;;;;;;;4992485;28;20030;-40
2022/07/12 04:37:19;;;;;;;2.30;1.00;;;;;;;;;;4992436;28;20014;-40
2022/07/12 04:39:45;;;;;;;2.38;1.42;;;;;;;;;;4992355;28;20030;-40
2022/07/12 04:42:10;;;;;;;1.27;1.02;;;;;;;;;;4992422;28;20381;-41
2022/07/12 04:44:35;;;;;;;0.82;0.73;;;;;;;;;;4992662;28;20085;-40
2022/07/12 04:47:01;;;;;;;0.73;0.43;;;;;;;;;;4992326;28;20377;-40
2022/07/12 04:49:26;;;;;;;1.45;0.70;;;;;;;;;;4992516;28;20065;-41
2022/07/12 04:51:52;;;;;;;1.15;0.70;;;;;;;;;;4992167;28;20014;-41
2022/07/12 04:54:17;;;;;;;2.63;0.75;;;;;;;;;;4992276;28;20072;-41
2022/07/12 04:56:43;;;;;;;1.33;0.90;;;;;;;;;;4991996;28;20105;-41
2022/07/12 04:59:08;;;;;;;2.58;0.93;;;;;;;;;;4990877;28;20125;-41
2022/07/12 05:01:34;;;;;;;1.25;0.63;;;;;;;;;;4992078;28;20125;-41
2022/07/12 05:03:59;;;;;;;1.85;1.00;;;;;;;;;;4992207;28;20034;-41
2022/07/12 05:06:25;;;;;;;3.97;0.65;;;;;;;;;;4992082;28;20050;-41
2022/07/12 05:08:50;;;;;;;4.00;1.08;;;;;;;;;;4992025;28;20096;-41
2022/07/12 05:11:16;;;;;;;1.70;0.80;;;;;;;;;;4992020;28;20030;-41
2022/07/12 05:13:42;;;;;;;1.38;0.80;;;;;;;;;;4992230;28;20093;-41
2022/07/12 05:16:08;;;;;;;2.88;0.70;;;;;;;;;;4991905;28;20050;-41
2022/07/12 05:18:33;;;;;;;0.95;0.82;;;;;;;;;;4991956;28;20041;-41
2022/07/12 05:20:59;;;;;;;1.70;0.70;;;;;;;;;;4992109;28;20042;-40
2022/07/12 05:23:24;;;;;;;1.63;1.08;;;;;;;;;;4974571;28;20057;-41
2022/07/12 05:25:50;;;;;;;1.83;0.93;;;;;;;;;;4992053;28;20057;-41
2022/07/12 05:28:15;;;;;;;0.90;0.50;;;;;;;;;;4992165;28;20030;-40
2022/07/12 05:30:41;;;;;;;2.60;0.68;;;;;;;;;;4992016;28;20061;-41
2022/07/12 05:33:07;;;;;;;1.10;0.90;;;;;;;;;;4992034;28;20037;-41
2022/07/12 05:35:32;;;;;;;0.70;0.70;;;;;;;;;;4991801;28;20022;-41
2022/07/12 05:37:58;;;;;;;1.42;0.80;;;;;;;;;;4991702;28;20037;-41
2022/07/12 05:40:23;;;;;;;1.00;0.77;;;;;;;;;;4991630;28;20156;-40
2022/07/12 05:42:49;;;;;;;1.95;0.70;;;;;;;;;;4991672;28;20038;-44
2022/07/12 05:45:14;;;;;;;2.05;0.93;;;;;;;;;;4992050;28;20030;-41
2022/07/12 05:47:40;;;;;;;0.98;0.60;;;;;;;;;;4991548;28;20022;-40
2022/07/12 05:50:06;;;;;;;0.63;0.57;;;;;;;;;;4992006;28;20022;-41
2022/07/12 05:55:15;;;;;;;7.00;1.05;;;;;;;;;;4991773;28;20110;-40
2022/07/12 05:57:41;;;;;;;5.03;0.80;;;;;;;;;;4992413;28;20109;-40
2022/07/12 06:00:07;;;;;;;1.38;1.05;;;;;;;;;;4995588;28;20038;-39
2022/07/12 06:02:33;;;;;;;2.17;0.90;;;;;;;;;;4995253;28;20027;-40
2022/07/12 06:04:58;;;;;;;1.77;0.80;;;;;;;;;;4995456;28;20041;-40
2022/07/12 06:07:23;;;;;;;0.68;0.65;;;;;;;;;;4995527;28;20026;-41
2022/07/12 06:09:49;;;;;;;1.10;0.80;;;;;;;;;;4995083;28;20473;-40
2022/07/12 06:12:15;;;;;;;1.60;0.93;;;;;;;;;;4977688;28;20050;-41
2022/07/12 06:14:40;;;;;;;1.63;0.68;;;;;;;;;;4995049;28;20046;-41
2022/07/12 06:17:07;;;;;;;1.92;0.90;;;;;;;;;;4995201;28;20077;-40
2022/07/12 06:19:36;;;;;;;2.97;0.75;;;;;;;;;;4994917;28;20436;-43
2022/07/12 06:22:01;;;;;;;0.90;0.65;;;;;;;;;;4994809;28;20029;-41
2022/07/12 06:24:27;;;;;;;0.50;0.43;;;;;;;;;;4995215;28;20022;-40
2022/07/12 06:26:52;;;;;;;1.83;0.75;;;;;;;;;;4994811;28;20019;-40
2022/07/12 06:29:18;;;;;;;3.40;1.08;;;;;;;;;;4994808;28;20026;-41
2022/07/12 06:31:43;;;;;;;2.10;0.90;;;;;;;;;;4994842;28;20054;-40
2022/07/12 06:34:09;;;;;;;0.73;0.70;;;;;;;;;;4994937;28;20037;-40
2022/07/12 06:36:34;;;;;;;1.00;0.90;;;;;;;;;;4994963;28;20026;-40
2022/07/12 06:39:00;;;;;;;1.20;1.05;;;;;;;;;;4994822;28;20380;-41
2022/07/12 06:41:29;;;;;;;0.98;0.50;;;;;;;;;;4994585;28;20097;-40
2022/07/12 06:43:54;;;;;;;1.00;0.80;;;;;;;;;;4994844;28;20031;-40
2022/07/12 06:46:20;;;;;;;2.00;0.85;;;;;;;;;;4977139;28;20049;-41
2022/07/12 06:48:45;;;;;;;0.80;0.57;;;;;;;;;;4994404;28;20060;-40
2022/07/12 06:51:11;;;;;;;6.53;0.80;;;;;;;;;;4994455;28;20038;-39
2022/07/12 06:53:36;;;;;;;0.57;0.57;;;;;;;;;;4994365;28;20488;-40
2022/07/12 06:56:02;;;;;;;2.17;0.60;;;;;;;;;;4994300;28;20041;-40
2022/07/12 06:58:28;;;;;;;0.70;0.52;;;;;;;;;;4994142;28;20193;-40
2022/07/12 07:00:53;;;;;;;2.20;0.80;;;;;;;;;;4994348;28;20392;-41
2022/07/12 07:03:19;;;;;;;2.05;0.80;;;;;;;;;;4992987;28;20037;-40
2022/07/12 07:05:45;;;;;;;1.65;0.70;;;;;;;;;;4994098;28;20073;-44
2022/07/12 07:08:10;;;;;;;1.60;0.77;;;;;;;;;;4993833;28;20034;-40
2022/07/12 07:10:36;;;;;;;2.97;1.48;;;;;;;;;;4994051;28;20293;-40
2022/07/12 07:13:01;;;;;;;1.50;0.70;;;;;;;;;;4993959;28;20034;-41
2022/07/12 07:15:27;;;;;;;3.95;0.80;;;;;;;;;;4993938;28;20497;-40
2022/07/12 07:17:52;;;;;;;7.20;2.03;;;;;;;;;;4976542;28;20052;-41
2022/07/12 07:20:18;;;;;;;1.17;0.95;;;;;;;;;;4994013;28;20035;-41
2022/07/12 07:22:43;;;;;;;0.63;0.60;;;;;;;;;;4994040;28;20030;-40
2022/07/12 07:25:09;;;;;;;0.60;0.40;;;;;;;;;;4993850;28;20503;-40
2022/07/12 07:27:35;;;;;;;2.28;0.82;;;;;;;;;;4992464;28;20034;-40
2022/07/12 07:32:45;;;;;;;3.55;0.90;;;;;;;;;;4993347;28;20453;-44
2022/07/12 07:35:10;;;;;;;2.00;0.65;;;;;;;;;;4993675;28;20057;-41
2022/07/12 07:37:36;;;;;;;0.85;0.60;;;;;;;;;;4993593;28;20022;-41
2022/07/12 07:40:02;;;;;;;1.13;0.73;;;;;;;;;;4993545;28;20046;-41
2022/07/12 07:42:28;;;;;;;0.70;0.45;;;;;;;;;;4993293;28;20030;-40
2022/07/12 07:44:54;;;;;;;3.70;0.80;;;;;;;;;;4993592;28;20018;-41
2022/07/12 07:47:19;;;;;;;1.15;0.70;;;;;;;;;;4993654;28;20825;-40
2022/07/12 07:49:45;;;;;;;1.15;0.45;;;;;;;;;;4993118;28;20022;-41
2022/07/12 07:52:10;;;;;;;2.35;0.90;;;;;;;;;;4993285;28;20022;-41
2022/07/12 07:54:36;;;;;;;2.03;0.77;;;;;;;;;;4976013;28;20061;-41
2022/07/12 07:57:01;;;;;;;1.23;0.70;;;;;;;;;;4993279;28;20022;-40
2022/07/12 07:59:27;;;;;;;1.70;0.70;;;;;;;;;;4993584;28;20601;-40
2022/07/12 08:01:52;;;;;;;3.92;1.15;;;;;;;;;;4993097;28;20172;-40
2022/07/12 08:04:18;;;;;;;4.72;1.02;;;;;;;;;;4993075;28;20018;-41
2022/07/12 08:06:45;;;;;;;0.40;0.40;;;;;;;;;;4992911;28;20413;-40
2022/07/12 08:09:11;;;;;;;1.77;0.82;;;;;;;;;;4992898;28;20026;-40
2022/07/12 08:11:37;;;;;;;1.08;0.80;;;;;;;;;;4992951;28;20042;-41
2022/07/12 08:14:03;;;;;;;1.10;0.80;;;;;;;;;;4959255;28;20561;-41
2022/07/12 08:16:29;;;;;;;0.45;0.45;;;;;;;;;;4992673;28;20072;-40
2022/07/12 08:18:55;;;;;;;3.70;0.65;;;;;;;;;;4992842;28;20540;-41
2022/07/12 08:21:21;;;;;;;2.95;0.73;;;;;;;;;;4992083;28;20476;-41
2022/07/12 08:23:46;;;;;;;0.60;0.60;;;;;;;;;;4992522;28;20025;-41
2022/07/12 08:26:11;;;;;;;1.88;0.60;;;;;;;;;;4993010;28;20069;-41
2022/07/12 08:28:37;;;;;;;0.85;0.68;;;;;;;;;;4992667;28;20099;-41
2022/07/12 08:31:02;;;;;;;0.93;0.80;;;;;;;;;;4992466;28;20085;-41
2022/07/12 08:33:28;;;;;;;1.45;1.35;;;;;;;;;;4992762;28;20019;-41
2022/07/12 08:35:53;;;;;;;0.88;0.68;;;;;;;;;;4992461;28;20030;-41
2022/07/12 08:38:19;;;;;;;0.70;0.70;;;;;;;;;;4992445;28;20362;-41
2022/07/12 08:40:44;;;;;;;1.58;0.70;;;;;;;;;;4992569;28;20053;-40
2022/07/12 08:43:10;;;;;;;0.70;0.47;;;;;;;;;;4992457;28;20011;-41
2022/07/12 08:45:35;;;;;;;1.42;0.60;;;;;;;;;;4992633;28;20062;-41
2022/07/12 08:48:01;;;;;;;2.17;0.70;;;;;;;;;;4992235;28;20463;-41
2022/07/12 08:50:27;;;;;;;0.68;0.60;;;;;;;;;;4992609;28;20037;-40
2022/07/12 08:52:53;;;;;;;3.45;0.65;;;;;;;;;;4992084;28;20520;-41
2022/07/12 08:55:25;;;;;;;0.68;0.65;;;;;;;;;;4992275;28;20077;-41
2022/07/12 08:57:52;;;;;;;0.60;0.50;;;;;;;;;;4992077;28;20034;-41
2022/07/12 09:00:17;;;;;;;1.27;0.55;;;;;;;;;;4992248;28;20089;-41
2022/07/12 09:02:49;;;;;;;0.80;0.50;;;;;;;;;;4992010;28;20389;-41
2022/07/12 09:05:16;;;;;;;1.35;0.63;;;;;;;;;;4992247;28;20029;-41
2022/07/12 09:07:42;;;;;;;2.55;0.90;;;;;;;;;;4992015;28;20024;-41
2022/07/12 09:10:08;;;;;;;0.98;0.90;;;;;;;;;;4991999;28;20023;-41
2022/07/12 09:12:34;;;;;;;3.53;0.70;;;;;;;;;;4992317;28;20029;-41
2022/07/12 09:15:14;;;;;;;0.70;0.68;;;;;;;;;;4991751;28;20097;-41
2022/07/12 09:17:40;;;;;;;3.08;0.52;;;;;;;;;;4991994;28;20034;-41
2022/07/12 09:20:09;;;;;;;0.98;0.70;;;;;;;;;;4992086;28;20113;-41
2022/07/12 09:22:35;;;;;;;1.17;0.68;;;;;;;;;;4992197;28;20105;-41
2022/07/12 09:25:17;;;;;;;0.98;0.57;;;;;;;;;;4992137;28;20525;-40
2022/07/12 09:28:03;;;;;;;2.63;0.50;;;;;;;;;;4992025;28;20065;-41
2022/07/12 09:30:29;;;;;;;2.53;1.20;;;;;;;;;;4991205;28;20283;-40
2022/07/12 09:36:06;;;;;;;2.08;1.25;;;;;;;;;;4995694;28;20473;-42
2022/07/12 09:38:38;;;;;;;1.88;0.70;;;;;;;;;;4978306;28;20161;-40
2022/07/12 09:41:07;;;;;;;0.60;0.60;;;;;;;;;;4995861;28;20042;-41
2022/07/12 09:43:32;;;;;;;1.67;0.80;;;;;;;;;;4995761;28;20022;-41
2022/07/12 09:45:58;;;;;;;1.88;0.80;;;;;;;;;;4995810;28;20030;-41
2022/07/12 09:48:25;;;;;;;1.50;0.70;;;;;;;;;;4995587;28;20382;-41
2022/07/12 09:50:51;;;;;;;1.38;0.50;;;;;;;;;;4995777;28;20358;-41
2022/07/12 09:53:31;;;;;;;1.02;0.43;;;;;;;;;;4995534;28;20130;-41
2022/07/12 09:55:57;;;;;;;0.45;0.45;;;;;;;;;;4994141;28;20033;-40
2022/07/12 09:58:26;;;;;;;1.83;0.98;;;;;;;;;;4995389;28;20380;-41
2022/07/12 10:00:53;;;;;;;0.95;0.63;;;;;;;;;;4995182;28;20049;-40
2022/07/12 10:03:23;;;;;;;2.05;0.80;;;;;;;;;;4995346;28;20018;-41
2022/07/12 10:05:50;;;;;;;1.48;0.88;;;;;;;;;;4995508;28;20035;-40
2022/07/12 10:08:15;;;;;;;0.80;0.70;;;;;;;;;;4995212;28;20034;-41
2022/07/12 10:10:42;;;;;;;2.47;0.80;;;;;;;;;;4995226;28;20034;-40
2022/07/12 10:13:07;;;;;;;1.00;0.80;;;;;;;;;;4995170;28;20024;-40
2022/07/12 10:15:33;;;;;;;0.70;0.70;;;;;;;;;;4994919;28;20046;-40
2022/07/12 10:18:00;;;;;;;1.35;0.75;;;;;;;;;;4995163;28;20089;-40
2022/07/12 10:20:26;;;;;;;0.80;0.55;;;;;;;;;;4995012;28;20088;-41
2022/07/12 10:22:56;;;;;;;0.93;0.68;;;;;;;;;;4994877;28;20022;-41
2022/07/12 10:25:27;;;;;;;0.95;0.82;;;;;;;;;;4994896;28;20026;-41
2022/07/12 10:27:53;;;;;;;1.67;0.73;;;;;;;;;;4994868;28;20630;-41
2022/07/12 10:30:20;;;;;;;1.65;0.60;;;;;;;;;;4977493;28;20101;-40
2022/07/12 10:32:45;;;;;;;2.97;0.70;;;;;;;;;;4994667;28;20113;-40
2022/07/12 10:35:12;;;;;;;0.50;0.50;;;;;;;;;;4995147;28;20121;-41
2022/07/12 10:37:38;;;;;;;2.15;0.70;;;;;;;;;;4994993;28;20035;-41
2022/07/12 10:40:14;;;;;;;1.13;0.85;;;;;;;;;;4994409;28;20527;-41
2022/07/12 10:42:41;;;;;;;1.67;0.90;;;;;;;;;;4994704;28;20455;-41
2022/07/12 10:45:12;;;;;;;0.40;0.40;;;;;;;;;;4994143;28;20050;-41
2022/07/12 10:47:54;;;;;;;0.77;0.77;;;;;;;;;;4994559;28;20061;-41
2022/07/12 10:50:40;;;;;;;1.58;0.90;;;;;;;;;;4994468;28;20389;-41
2022/07/12 10:53:21;;;;;;;1.60;0.75;;;;;;;;;;4994263;28;20150;-41
2022/07/12 10:56:05;;;;;;;1.85;0.70;;;;;;;;;;4994629;28;20523;-42
2022/07/12 10:58:32;;;;;;;1.55;0.90;;;;;;;;;;4994305;28;20034;-41
2022/07/12 11:01:18;;;;;;;2.78;0.90;;;;;;;;;;4994345;28;20034;-40
2022/07/12 11:03:51;;;;;;;4.65;0.93;;;;;;;;;;4993773;28;20049;-40
2022/07/12 11:06:18;;;;;;;1.20;1.10;;;;;;;;;;4994184;28;20037;-41
2022/07/12 11:08:57;;;;;;;4.03;0.98;;;;;;;;;;4994297;28;20030;-40
2022/07/12 11:11:24;;;;;;;3.10;1.00;;;;;;;;;;4994174;28;20148;-41
2022/07/12 11:13:50;;;;;;;1.42;0.85;;;;;;;;;;4993956;28;20060;-41
2022/07/12 11:16:16;;;;;;;1.25;0.80;;;;;;;;;;4993894;28;20078;-41
2022/07/12 11:18:42;;;;;;;0.80;0.80;;;;;;;;;;4994225;28;20084;-41
2022/07/12 11:24:44;;;;;;;2.88;1.30;;;;;;;;;;4994010;28;20041;-40
2022/07/12 11:27:13;;;;;;;1.63;1.27;;;;;;;;;;4994139;28;20400;-41
2022/07/12 11:29:38;;;;;;;3.85;1.20;;;;;;;;;;4993666;28;20373;-41
2022/07/12 11:32:05;;;;;;;2.40;1.17;;;;;;;;;;4993879;28;20026;-40
2022/07/12 11:34:31;;;;;;;2.05;0.95;;;;;;;;;;4976183;28;20141;-40
2022/07/12 11:36:57;;;;;;;1.02;0.90;;;;;;;;;;4993841;28;20121;-41
2022/07/12 11:39:36;;;;;;;0.70;0.70;;;;;;;;;;4993554;28;20100;-41
2022/07/12 11:42:04;;;;;;;5.60;1.52;;;;;;;;;;4993317;28;20049;-41
2022/07/12 11:44:43;;;;;;;1.67;1.20;;;;;;;;;;4993811;28;20436;-41
2022/07/12 11:47:09;;;;;;;0.88;0.68;;;;;;;;;;4993537;28;20107;-41
2022/07/12 11:49:34;;;;;;;1.20;0.98;;;;;;;;;;4993535;28;20108;-41
2022/07/12 11:52:00;;;;;;;1.25;1.00;;;;;;;;;;4993309;28;20540;-41
2022/07/12 11:54:25;;;;;;;2.60;0.85;;;;;;;;;;4993297;28;20026;-41
2022/07/12 11:57:04;;;;;;;1.58;1.20;;;;;;;;;;4992304;28;20022;-41
2022/07/12 11:59:29;;;;;;;1.02;0.93;;;;;;;;;;4993154;28;20493;-41
2022/07/12 12:02:05;;;;;;;1.75;1.45;;;;;;;;;;5093998;22;20498;-40
2022/07/12 12:04:31;;;;;;;1.10;1.00;;;;;;;;;;5052848;28;20068;-41
2022/07/12 12:06:56;;;;;;;2.20;1.23;;;;;;;;;;5052423;28;20444;-40
2022/07/12 12:09:22;;;;;;;1.52;1.30;;;;;;;;;;5052403;28;20031;-40
2022/07/12 12:11:47;;;;;;;1.35;1.15;;;;;;;;;;5052448;28;20546;-41
2022/07/12 12:14:13;;;;;;;1.30;1.20;;;;;;;;;;5034833;28;20442;-41
2022/07/12 12:16:46;;;;;;;1.33;1.10;;;;;;;;;;5068880;28;20422;-42
2022/07/12 12:19:12;;;;;;;2.92;1.33;;;;;;;;;;5069056;28;20021;-40
2022/07/12 12:21:38;;;;;;;4.20;1.52;;;;;;;;;;5068744;28;20028;-43
2022/07/12 12:24:10;;;;;;;1.63;0.90;;;;;;;;;;5068668;28;20059;-41
2022/07/12 12:26:35;;;;;;;1.33;1.10;;;;;;;;;;5068709;28;20017;-41
2022/07/12 12:29:02;;;;;;;2.45;1.17;;;;;;;;;;5050805;28;20020;-42
2022/07/12 12:31:28;;;;;;;1.65;1.23;;;;;;;;;;5068891;28;20075;-42
2022/07/12 12:33:58;;;;;;;1.27;1.10;;;;;;;;;;5068699;28;20052;-42
2022/07/12 12:36:25;;;;;;;1.35;1.25;;;;;;;;;;5068504;28;20512;-40
2022/07/12 12:38:52;;;;;;;3.05;1.25;;;;;;;;;;5068399;28;20493;-41
2022/07/12 12:41:19;;;;;;;1.65;1.33;;;;;;;;;;5068386;28;20036;-42
2022/07/12 12:43:44;;;;;;;1.67;1.10;;;;;;;;;;5068404;28;20039;-42
2022/07/12 12:46:10;;;;;;;2.25;1.00;;;;;;;;;;5068303;28;20108;-42
2022/07/12 12:48:36;;;;;;;1.40;1.30;;;;;;;;;;5068312;28;20023;-41
2022/07/12 12:51:11;;;;;;;2.10;0.95;;;;;;;;;;5068108;28;20037;-40
2022/07/12 12:53:39;;;;;;;2.60;1.20;;;;;;;;;;5068204;28;20040;-40
2022/07/12 12:56:14;;;;;;;1.63;1.30;;;;;;;;;;5067945;28;20071;-43
2022/07/12 12:58:40;;;;;;;1.67;1.10;;;;;;;;;;5066907;28;20074;-41
2022/07/12 13:01:06;;;;;;;1.27;1.17;;;;;;;;;;5068115;28;20021;-42
2022/07/12 13:03:31;;;;;;;1.20;1.10;;;;;;;;;;5067884;28;20029;-41
2022/07/12 13:05:57;;;;;;;1.33;0.88;;;;;;;;;;5066605;28;20067;-40
2022/07/12 13:08:24;;;;;;;1.20;1.10;;;;;;;;;;5068126;28;20028;-43
2022/07/12 13:11:31;;;;;;;2.17;1.00;;;;;;;;;;5067746;28;20024;-42
2022/07/12 13:13:38;;;;;;;1.45;1.00;;;;;;;;;;5069831;28;20044;-41
2022/07/12 13:16:04;;;;;;;2.13;1.52;;;;;;;;;;5067515;28;20410;-40
2022/07/12 13:18:29;;;;;;;3.78;1.23;;;;;;;;;;5067854;28;20481;-40
2022/07/12 13:20:55;;;;;;;0.82;0.82;;;;;;;;;;5067809;28;20417;-41
2022/07/12 13:23:20;;;;;;;1.45;1.10;;;;;;;;;;5067757;28;20083;-40
2022/07/12 13:25:46;;;;;;;1.17;1.02;;;;;;;;;;5067757;28;20020;-41
2022/07/12 13:28:11;;;;;;;5.60;1.23;;;;;;;;;;5053867;28;20391;-40
2022/07/12 13:30:37;;;;;;;1.77;1.13;;;;;;;;;;5054235;28;20063;-41
2022/07/12 13:33:03;;;;;;;3.13;1.35;;;;;;;;;;5054131;28;20025;-41
2022/07/12 13:35:29;;;;;;;1.92;1.38;;;;;;;;;;5052918;28;20025;-40
2022/07/12 13:37:55;;;;;;;2.35;1.08;;;;;;;;;;5054302;28;20037;-41
2022/07/12 13:40:22;;;;;;;2.45;1.00;;;;;;;;;;5054367;28;20025;-41
2022/07/12 13:42:48;;;;;;;1.00;0.90;;;;;;;;;;5053057;28;20083;-41
2022/07/12 13:45:21;;;;;;;1.65;1.20;;;;;;;;;;5054292;28;20478;-42
2022/07/12 13:47:47;;;;;;;1.00;1.00;;;;;;;;;;5053937;28;20595;-40
2022/07/12 13:50:14;;;;;;;4.10;1.35;;;;;;;;;;5053687;28;20025;-40
2022/07/12 13:52:40;;;;;;;1.55;1.33;;;;;;;;;;5053744;28;20111;-41
2022/07/12 13:55:06;;;;;;;1.73;1.50;;;;;;;;;;5053617;28;20530;-40
2022/07/12 13:57:33;;;;;;;1.27;1.15;;;;;;;;;;5053775;28;20044;-41
2022/07/12 13:59:58;;;;;;;2.50;1.30;;;;;;;;;;5053919;28;20021;-41
2022/07/12 14:02:25;;;;;;;1.00;1.00;;;;;;;;;;5053565;28;20033;-42
2022/07/12 14:04:51;;;;;;;1.58;1.48;;;;;;;;;;5053520;28;20074;-40
2022/07/12 14:07:17;;;;;;;1.80;1.20;;;;;;;;;;5053546;28;20127;-41
2022/07/12 14:09:42;;;;;;;1.80;1.48;;;;;;;;;;5052545;28;20021;-42
2022/07/12 14:12:09;;;;;;;3.40;1.50;;;;;;;;;;5053311;28;20040;-41
2022/07/12 14:17:19;;;;;;;4.90;1.33;;;;;;;;;;5053433;28;20033;-41
2022/07/12 14:19:45;;;;;;;3.20;1.25;;;;;;;;;;5053337;28;20024;-41
2022/07/12 14:22:10;;;;;;;2.63;1.40;;;;;;;;;;5053692;28;20032;-41
2022/07/12 14:24:35;;;;;;;2.03;1.38;;;;;;;;;;5053213;28;20374;-42
2022/07/12 14:27:02;;;;;;;1.67;1.05;;;;;;;;;;5053071;28;20120;-41
2022/07/12 14:29:28;;;;;;;1.73;1.42;;;;;;;;;;5053084;28;20027;-40
2022/07/12 14:31:55;;;;;;;1.40;1.30;;;;;;;;;;5053250;28;20029;-40
2022/07/12 14:34:21;;;;;;;1.17;0.85;;;;;;;;;;5051754;28;20020;-40
2022/07/12 14:36:47;;;;;;;1.48;1.10;;;;;;;;;;5053229;28;20055;-41
2022/07/12 14:39:12;;;;;;;4.68;1.17;;;;;;;;;;5052138;28;20021;-42
2022/07/12 14:41:38;;;;;;;1.60;1.48;;;;;;;;;;5052842;28;20021;-42
2022/07/12 14:44:06;;;;;;;4.55;1.30;;;;;;;;;;5053015;28;20017;-41
2022/07/12 14:46:32;;;;;;;1.45;1.05;;;;;;;;;;5052761;28;20120;-40
2022/07/12 14:48:58;;;;;;;0.85;0.85;;;;;;;;;;5052720;28;20151;-41
2022/07/12 14:51:23;;;;;;;1.40;1.30;;;;;;;;;;5052727;28;20029;-41
2022/07/12 14:53:52;;;;;;;2.95;1.00;;;;;;;;;;5052587;28;20017;-40